^^
Grace C. Lehan Memorial Weather Station Historical Data
Daily Summary for August 01, 2022 Units:  Both    English   Metric
Daily Weekly Monthly Yearly
  High: Low: Average:
Temperature: 82.2 °F /  27.9 °C 68.7 °F /  20.4 °C 74.7 °F /  23.7 °C
Dew Point: 70.5 °F /  21.4 °C 64.4 °F /  18 °C 68.5 °F /  20.3 °C
Humidity: 95% 65.5% 82%
Wind Speed: 0.7mph /  1.1km/h - 0mph /  0km/h
Wind Gust: 4mph /  6.4km/h - -
Wind- - SSW
Pressure: 30.02 in /  1016.5 hPa 29.80 in /  1009 hPa -
Precipitation: 0.25 in /  6.35 mm    
 
 
Tabular Data for August 01, 2022
Time Temperature Dew Point Pressure Wind Wind Speed Wind Gust Humidity Rainfall Rate (Hourly) solar
00:00 76.1 °F /  24.5 °C 64.4 °F /  18 °C 30.02in /  1016.5hPa Calm     67% 0.00in /  0mm 0 W/m2
00:09 75.9 °F /  24.4 °C 65.1 °F /  18.4 °C 30.02in /  1016.5hPa Calm     69% 0.00in /  0mm 0 W/m2
00:14 75.8 °F /  24.3 °C 65.5 °F /  18.6 °C 30.01in /  1016.1hPa Calm     70.5% 0.00in /  0mm 0 W/m2
00:19 75.5 °F /  24.2 °C 65.5 °F /  18.6 °C 30.01in /  1016.1hPa Calm     71.2% 0.00in /  0mm 0 W/m2
00:24 75.2 °F /  24 °C 65.6 °F /  18.7 °C 30.01in /  1016.1hPa Calm     72% 0.00in /  0mm 0 W/m2
00:29 74.9 °F /  23.8 °C 65.3 °F /  18.5 °C 30.01in /  1016.1hPa Calm     72.1% 0.00in /  0mm 0 W/m2
00:34 74.6 °F /  23.7 °C 65.7 °F /  18.7 °C 30.01in /  1016.1hPa Calm     73.6% 0.00in /  0mm 0 W/m2
00:39 74.4 °F /  23.6 °C 65.8 °F /  18.8 °C 30.01in /  1016.1hPa Calm     74.4% 0.00in /  0mm 0 W/m2
00:44 74.2 °F /  23.4 °C 65.8 °F /  18.8 °C 30.01in /  1016.1hPa Calm     75% 0.00in /  0mm 0 W/m2
00:49 74 °F /  23.3 °C 66 °F /  18.9 °C 30.01in /  1016.1hPa Calm     76% 0.00in /  0mm 0 W/m2
00:54 73.8 °F /  23.2 °C 66.1 °F /  18.9 °C 30.00in /  1015.8hPa Calm     76.8% 0.00in /  0mm 0 W/m2
00:59 73.7 °F /  23.2 °C 66.3 °F /  19.1 °C 30.00in /  1015.8hPa Calm     77.6% 0.00in /  0mm 0 W/m2
01:04 73.6 °F /  23.1 °C 66.2 °F /  19 °C 30.00in /  1015.8hPa Calm     77.8% 0.00in /  0mm 0 W/m2
01:09 73.5 °F /  23.1 °C 66.2 °F /  19 °C 30.00in /  1015.8hPa Calm     78% 0.00in /  0mm 0 W/m2
01:14 73.4 °F /  23 °C 66.1 °F /  18.9 °C 30.00in /  1015.8hPa Calm     78% 0.00in /  0mm 0 W/m2
01:19 73.3 °F /  22.9 °C 66.3 °F /  19.1 °C 30.00in /  1015.8hPa Calm     78.9% 0.00in /  0mm 0 W/m2
01:24 73.2 °F /  22.9 °C 66.3 °F /  19.1 °C 29.99in /  1015.5hPa Calm     79% 0.00in /  0mm 0 W/m2
01:29 73.1 °F /  22.8 °C 66.2 °F /  19 °C 30.00in /  1015.8hPa Calm     79% 0.00in /  0mm 0 W/m2
01:34 73.1 °F /  22.8 °C 66.4 °F /  19.1 °C 30.00in /  1015.8hPa Calm     79.6% 0.00in /  0mm 0 W/m2
01:39 73.1 °F /  22.8 °C 66.4 °F /  19.1 °C 30.00in /  1015.8hPa Calm     79.5% 0.00in /  0mm 0 W/m2
01:44 73 °F /  22.8 °C 66.5 °F /  19.2 °C 30.00in /  1015.8hPa Calm     80% 0.00in /  0mm 0 W/m2
01:49 73 °F /  22.8 °C 66.5 °F /  19.2 °C 30.00in /  1015.8hPa Calm     80% 0.00in /  0mm 0 W/m2
01:54 72.9 °F /  22.7 °C 66.4 °F /  19.1 °C 30.00in /  1015.8hPa Calm     80% 0.00in /  0mm 0 W/m2
01:59 72.9 °F /  22.7 °C 66.4 °F /  19.1 °C 29.99in /  1015.5hPa Calm     80% 0.00in /  0mm 0 W/m2
02:04 72.9 °F /  22.7 °C 66.4 °F /  19.1 °C 29.99in /  1015.5hPa Calm     80% 0.00in /  0mm 0 W/m2
02:09 72.9 °F /  22.7 °C 66.4 °F /  19.1 °C 29.99in /  1015.5hPa Calm     80% 0.00in /  0mm 0 W/m2
02:14 72.9 °F /  22.7 °C 66.4 °F /  19.1 °C 29.99in /  1015.5hPa Calm     80% 0.00in /  0mm 0 W/m2
02:19 72.9 °F /  22.7 °C 66.4 °F /  19.1 °C 29.99in /  1015.5hPa Calm     80% 0.00in /  0mm 0 W/m2
02:24 72.9 °F /  22.7 °C 66.3 °F /  19.1 °C 29.99in /  1015.5hPa Calm     80% 0.00in /  0mm 0 W/m2
02:29 72.8 °F /  22.7 °C 66.6 °F /  19.2 °C 29.99in /  1015.5hPa Calm     80.9% 0.00in /  0mm 0 W/m2
02:34 72.9 °F /  22.7 °C 66.8 °F /  19.3 °C 29.99in /  1015.5hPa Calm     81.2% 0.00in /  0mm 0 W/m2
02:39 72.9 °F /  22.7 °C 67 °F /  19.4 °C 29.99in /  1015.5hPa Calm     81.7% 0.01in /  0.25mm 0 W/m2
02:44 72.9 °F /  22.7 °C 67.3 °F /  19.6 °C 29.99in /  1015.5hPa Calm     82.6% 0.01in /  0.25mm 0 W/m2
02:49 72.8 °F /  22.7 °C 67.5 °F /  19.7 °C 29.99in /  1015.5hPa Calm     83.5% 0.01in /  0.25mm 0 W/m2
02:54 72.7 °F /  22.6 °C 67.5 °F /  19.7 °C 29.99in /  1015.5hPa Calm     83.9% 0.02in /  0.51mm 0 W/m2
02:59 72.5 °F /  22.5 °C 67.4 °F /  19.7 °C 29.99in /  1015.5hPa Calm     84.2% 0.03in /  0.76mm 0 W/m2
03:04 72.3 °F /  22.4 °C 67.6 °F /  19.8 °C 30.00in /  1015.8hPa Calm     85% 0.04in /  1.02mm 0 W/m2
03:09 72.2 °F /  22.3 °C 67.7 °F /  19.8 °C 29.99in /  1015.5hPa Calm     85.9% 0.05in /  1.27mm 0 W/m2
03:14 72.1 °F /  22.3 °C 67.9 °F /  19.9 °C 29.99in /  1015.5hPa Calm     86.8% 0.06in /  1.52mm 0 W/m2
03:19 72 °F /  22.2 °C 68.1 °F /  20.1 °C 30.00in /  1015.8hPa Calm     87.5% 0.06in /  1.52mm 0 W/m2
03:24 71.9 °F /  22.2 °C 68.1 °F /  20.1 °C 30.00in /  1015.8hPa Calm     88% 0.07in /  1.78mm 0 W/m2
03:29 71.7 °F /  22.1 °C 68 °F /  20 °C 29.99in /  1015.5hPa Calm     88.1% 0.10in /  2.54mm 0 W/m2
03:34 71.5 °F /  21.9 °C 68.1 °F /  20.1 °C 29.99in /  1015.5hPa Calm     89% 0.11in /  2.79mm 0 W/m2
03:39 71.3 °F /  21.8 °C 68 °F /  20 °C 29.99in /  1015.5hPa Calm     89.3% 0.12in /  3.05mm 0 W/m2
03:44 71.2 °F /  21.8 °C 68.1 °F /  20.1 °C 29.99in /  1015.5hPa Calm     90% 0.13in /  3.3mm 0 W/m2
03:49 71.1 °F /  21.7 °C 68 °F /  20 °C 29.99in /  1015.5hPa Calm     90% 0.14in /  3.56mm 0 W/m2
03:54 71 °F /  21.7 °C 67.9 °F /  19.9 °C 29.99in /  1015.5hPa Calm     90% 0.14in /  3.56mm 0 W/m2
03:59 70.9 °F /  21.6 °C 68 °F /  20 °C 29.99in /  1015.5hPa Calm     90.6% 0.14in /  3.56mm 0 W/m2
04:00 70.9 °F /  21.6 °C 68.2 °F /  20.1 °C 29.99in /  1015.5hPa Calm     91% 0.14in /  3.56mm 0 W/m2
04:09 70.8 °F /  21.6 °C 68.1 °F /  20.1 °C 29.99in /  1015.5hPa Calm     91% 0.11in /  2.79mm 0 W/m2
04:14 70.8 °F /  21.6 °C 68.1 °F /  20.1 °C 29.99in /  1015.5hPa Calm     91.2% 0.11in /  2.79mm 0 W/m2
04:19 70.8 °F /  21.6 °C 68.4 °F /  20.2 °C 30.00in /  1015.8hPa Calm     92% 0.11in /  2.79mm 0 W/m2
04:24 70.8 °F /  21.6 °C 68.3 °F /  20.2 °C 30.00in /  1015.8hPa Calm     92% 0.12in /  3.05mm 0 W/m2
04:29 70.7 °F /  21.5 °C 68.3 °F /  20.2 °C 30.00in /  1015.8hPa Calm     92% 0.12in /  3.05mm 0 W/m2
04:34 70.8 °F /  21.6 °C 68.7 °F /  20.4 °C 30.00in /  1015.8hPa Calm     92.9% 0.12in /  3.05mm 0 W/m2
04:39 71 °F /  21.7 °C 68.8 °F /  20.4 °C 30.00in /  1015.8hPa Calm     93% 0.06in /  1.52mm 0 W/m2
04:44 71.1 °F /  21.7 °C 68.9 °F /  20.5 °C 30.00in /  1015.8hPa Calm     93% 0.07in /  1.78mm 0 W/m2
04:49 71.1 °F /  21.7 °C 69 °F /  20.6 °C 30.00in /  1015.8hPa Calm     93% 0.08in /  2.03mm 0 W/m2
04:54 71.1 °F /  21.7 °C 69 °F /  20.6 °C 30.00in /  1015.8hPa Calm     93% 0.09in /  2.29mm 0 W/m2
04:59 71 °F /  21.7 °C 68.9 °F /  20.5 °C 30.00in /  1015.8hPa Calm     93% 0.10in /  2.54mm 0 W/m2
05:04 71 °F /  21.7 °C 68.9 °F /  20.5 °C 29.99in /  1015.5hPa Calm     93% 0.10in /  2.54mm 0 W/m2
05:09 70.9 °F /  21.6 °C 68.8 °F /  20.4 °C 29.99in /  1015.5hPa Calm     93.1% 0.07in /  1.78mm 0 W/m2
05:14 70.8 °F /  21.6 °C 69 °F /  20.6 °C 29.99in /  1015.5hPa Calm     94% 0.08in /  2.03mm 0 W/m2
05:19 70.8 °F /  21.6 °C 69 °F /  20.6 °C 30.00in /  1015.8hPa Calm   2mph /  3.2km/h 94% 0.08in /  2.03mm 0 W/m2
05:24 70.7 °F /  21.5 °C 68.7 °F /  20.4 °C 30.00in /  1015.8hPa West 0.1mph /  0.2km/h 2mph /  3.2km/h 93.3% 0.08in /  2.03mm 0 W/m2
05:29 70.6 °F /  21.4 °C 68.5 °F /  20.3 °C 30.00in /  1015.8hPa Calm   2mph /  3.2km/h 93% 0.08in /  2.03mm 0 W/m2
05:34 70.5 °F /  21.4 °C 68.6 °F /  20.3 °C 29.99in /  1015.5hPa Calm   2mph /  3.2km/h 93.6% 0.08in /  2.03mm 0 W/m2
05:39 70.4 °F /  21.3 °C 68.6 °F /  20.3 °C 29.99in /  1015.5hPa Calm     94% 0.07in /  1.78mm 0 W/m2
05:44 70.2 °F /  21.2 °C 68.4 °F /  20.2 °C 29.99in /  1015.5hPa Calm     94% 0.08in /  2.03mm 0 W/m2
05:49 70.1 °F /  21.2 °C 68.2 °F /  20.1 °C 29.99in /  1015.5hPa Calm     93.9% 0.09in /  2.29mm 0 W/m2
05:54 69.9 °F /  21.1 °C 68 °F /  20 °C 29.99in /  1015.5hPa Calm     93.7% 0.10in /  2.54mm 0 W/m2
05:59 69.8 °F /  21 °C 68 °F /  20 °C 29.99in /  1015.5hPa Calm     94% 0.10in /  2.54mm 0 W/m2
06:04 69.7 °F /  20.9 °C 67.9 °F /  19.9 °C 29.99in /  1015.5hPa Calm     94% 0.10in /  2.54mm 0 W/m2
06:09 69.6 °F /  20.9 °C 67.8 °F /  19.9 °C 29.99in /  1015.5hPa Calm     94% 0.05in /  1.27mm 0 W/m2
06:14 69.5 °F /  20.8 °C 67.7 °F /  19.8 °C 29.99in /  1015.5hPa Calm     94% 0.05in /  1.27mm 0 W/m2
06:19 69.4 °F /  20.8 °C 67.6 °F /  19.8 °C 29.99in /  1015.5hPa Calm     94% 0.05in /  1.27mm 0 W/m2
06:24 69.2 °F /  20.7 °C 67.4 °F /  19.7 °C 29.99in /  1015.5hPa Calm     94% 0.05in /  1.27mm 0 W/m2
06:29 69.1 °F /  20.6 °C 67.3 °F /  19.6 °C 29.99in /  1015.5hPa Calm     94% 0.05in /  1.27mm 0 W/m2
06:34 69 °F /  20.6 °C 67.2 °F /  19.6 °C 29.99in /  1015.5hPa Calm     94% 0.05in /  1.27mm 0 W/m2
06:39 69 °F /  20.6 °C 67.2 °F /  19.6 °C 29.99in /  1015.5hPa Calm     94% 0.03in /  0.76mm 5 W/m2
06:44 68.9 °F /  20.5 °C 67.1 °F /  19.5 °C 29.99in /  1015.5hPa Calm     94% 0.03in /  0.76mm 5 W/m2
06:49 68.8 °F /  20.4 °C 67 °F /  19.4 °C 29.99in /  1015.5hPa Calm     94% 0.03in /  0.76mm 9 W/m2
06:54 68.7 °F /  20.4 °C 66.9 °F /  19.4 °C 29.99in /  1015.5hPa Calm     94% 0.03in /  0.76mm 12 W/m2
06:59 68.7 °F /  20.4 °C 66.9 °F /  19.4 °C 29.99in /  1015.5hPa Calm     94% 0.03in /  0.76mm 19 W/m2
07:04 68.7 °F /  20.4 °C 66.9 °F /  19.4 °C 29.99in /  1015.5hPa Calm     94% 0.03in /  0.76mm 21 W/m2
07:09 68.7 °F /  20.4 °C 66.9 °F /  19.4 °C 29.99in /  1015.5hPa Calm     94% 0.00in /  0mm 21 W/m2
07:14 68.8 °F /  20.4 °C 67.3 °F /  19.6 °C 29.99in /  1015.5hPa Calm     94.8% 0.00in /  0mm 28 W/m2
07:19 69 °F /  20.6 °C 67.5 °F /  19.7 °C 29.98in /  1015.1hPa Calm     95% 0.00in /  0mm 32 W/m2
07:24 69 °F /  20.6 °C 67.5 °F /  19.7 °C 29.98in /  1015.1hPa Calm     95% 0.00in /  0mm 35 W/m2
07:29 69.1 °F /  20.6 °C 67.6 °F /  19.8 °C 29.98in /  1015.1hPa Calm     95% 0.00in /  0mm 40 W/m2
07:34 69.2 °F /  20.7 °C 67.7 °F /  19.8 °C 29.98in /  1015.1hPa Calm     95% 0.00in /  0mm 44 W/m2
07:39 69.2 °F /  20.7 °C 67.7 °F /  19.8 °C 29.98in /  1015.1hPa Calm     95% 0.00in /  0mm 53 W/m2
07:44 69.2 °F /  20.7 °C 67.7 °F /  19.8 °C 29.98in /  1015.1hPa Calm     95% 0.00in /  0mm 53 W/m2
07:49 69.2 °F /  20.7 °C 67.7 °F /  19.8 °C 29.98in /  1015.1hPa Calm     95% 0.00in /  0mm 42 W/m2
07:54 69.3 °F /  20.7 °C 67.8 °F /  19.9 °C 29.98in /  1015.1hPa Calm     95% 0.00in /  0mm 49 W/m2
07:59 69.4 °F /  20.8 °C 67.9 °F /  19.9 °C 29.98in /  1015.1hPa Calm     95% 0.00in /  0mm 67 W/m2
08:09 69.7 °F /  20.9 °C 68.2 °F /  20.1 °C 29.98in /  1015.1hPa Calm     95% 0.00in /  0mm 56 W/m2
08:14 69.7 °F /  20.9 °C 68.2 °F /  20.1 °C 29.98in /  1015.1hPa Calm     95% 0.00in /  0mm 54 W/m2
08:19 69.8 °F /  21 °C 68.3 °F /  20.2 °C 29.98in /  1015.1hPa Calm     95% 0.00in /  0mm 44 W/m2
08:24 69.9 °F /  21.1 °C 68.4 °F /  20.2 °C 29.98in /  1015.1hPa Calm     95% 0.00in /  0mm 51 W/m2
08:29 69.9 °F /  21.1 °C 68.4 °F /  20.2 °C 29.98in /  1015.1hPa Calm     95% 0.00in /  0mm 51 W/m2
08:34 70 °F /  21.1 °C 68.5 °F /  20.3 °C 29.98in /  1015.1hPa Calm     95% 0.00in /  0mm 51 W/m2
08:39 69.9 °F /  21.1 °C 68.4 °F /  20.2 °C 29.97in /  1014.8hPa Calm     95% 0.00in /  0mm 72 W/m2
08:44 69.7 °F /  20.9 °C 68.2 °F /  20.1 °C 29.97in /  1014.8hPa Calm     95% 0.00in /  0mm 93 W/m2
08:49 69.8 °F /  21 °C 68.3 °F /  20.2 °C 29.97in /  1014.8hPa Calm     95% 0.00in /  0mm 95 W/m2
08:54 69.9 °F /  21.1 °C 68.4 °F /  20.2 °C 29.97in /  1014.8hPa Calm     95% 0.00in /  0mm 95 W/m2
08:59 70.1 °F /  21.2 °C 68.6 °F /  20.3 °C 29.97in /  1014.8hPa Calm     95% 0.00in /  0mm 86 W/m2
09:04 70.2 °F /  21.2 °C 68.7 °F /  20.4 °C 29.96in /  1014.4hPa Calm     95% 0.00in /  0mm 79 W/m2
09:09 70.3 °F /  21.3 °C 68.8 °F /  20.4 °C 29.96in /  1014.4hPa Calm     95% 0.00in /  0mm 111 W/m2
09:14 70.4 °F /  21.3 °C 68.9 °F /  20.5 °C 29.96in /  1014.4hPa Calm     95% 0.00in /  0mm 176 W/m2
09:19 70.7 °F /  21.5 °C 69.2 °F /  20.7 °C 29.96in /  1014.4hPa Calm     95% 0.00in /  0mm 193 W/m2
09:24 70.8 °F /  21.6 °C 69.3 °F /  20.7 °C 29.96in /  1014.4hPa Calm     95% 0.00in /  0mm 163 W/m2
09:29 70.8 °F /  21.6 °C 69.3 °F /  20.7 °C 29.96in /  1014.4hPa Calm     95% 0.00in /  0mm 278 W/m2
09:34 71.1 °F /  21.7 °C 69.6 °F /  20.9 °C 29.95in /  1014.1hPa Calm     95% 0.00in /  0mm 443 W/m2
09:39 71.6 °F /  22 °C 70.1 °F /  21.2 °C 29.95in /  1014.1hPa Calm     95% 0.00in /  0mm 473 W/m2
09:44 71.7 °F /  22.1 °C 70.2 °F /  21.2 °C 29.95in /  1014.1hPa Calm     95% 0.00in /  0mm 355 W/m2
09:49 71.9 °F /  22.2 °C 70.1 °F /  21.2 °C 29.95in /  1014.1hPa Calm     94% 0.00in /  0mm 369 W/m2
09:54 72 °F /  22.2 °C 69.8 °F /  21 °C 29.95in /  1014.1hPa Calm     93% 0.00in /  0mm 443 W/m2
09:59 72.3 °F /  22.4 °C 70.1 °F /  21.2 °C 29.94in /  1013.8hPa Calm     92.8% 0.00in /  0mm 527 W/m2
10:04 72.7 °F /  22.6 °C 70.2 °F /  21.2 °C 29.94in /  1013.8hPa Calm     91.7% 0.00in /  0mm 420 W/m2
10:09 73.2 °F /  22.9 °C 70.2 °F /  21.2 °C 29.94in /  1013.8hPa Calm     90.4% 0.00in /  0mm 385 W/m2
10:14 73.5 °F /  23.1 °C 69.9 °F /  21.1 °C 29.94in /  1013.8hPa Calm     88.6% 0.00in /  0mm 322 W/m2
10:19 73.9 °F /  23.3 °C 70.2 °F /  21.2 °C 29.94in /  1013.8hPa Calm     88.2% 0.00in /  0mm 355 W/m2
10:24 74.3 °F /  23.5 °C 70.2 °F /  21.2 °C 29.94in /  1013.8hPa Calm     87.1% 0.00in /  0mm 359 W/m2
10:29 74.6 °F /  23.7 °C 70.1 °F /  21.2 °C 29.94in /  1013.8hPa Calm     86.1% 0.00in /  0mm 369 W/m2
10:34 74.6 °F /  23.7 °C 69.8 °F /  21 °C 29.94in /  1013.8hPa Calm     85.1% 0.00in /  0mm 394 W/m2
10:39 74.7 °F /  23.7 °C 69.9 °F /  21.1 °C 29.93in /  1013.4hPa Calm     85% 0.00in /  0mm 490 W/m2
10:44 75 °F /  23.9 °C 70.2 °F /  21.2 °C 29.93in /  1013.4hPa Calm   1mph /  1.6km/h 85% 0.00in /  0mm 582 W/m2
10:49 75.1 °F /  23.9 °C 69.2 °F /  20.7 °C 29.93in /  1013.4hPa Calm   1mph /  1.6km/h 81.7% 0.00in /  0mm 612 W/m2
10:54 75.7 °F /  24.3 °C 70.1 °F /  21.2 °C 29.93in /  1013.4hPa Calm   1mph /  1.6km/h 82.9% 0.00in /  0mm 657 W/m2
10:59 76.3 °F /  24.6 °C 70.5 °F /  21.4 °C 29.93in /  1013.4hPa Calm   1mph /  1.6km/h 82.3% 0.00in /  0mm 647 W/m2
11:04 77 °F /  25 °C 70.2 °F /  21.2 °C 29.93in /  1013.4hPa Calm   2mph /  3.2km/h 79.7% 0.00in /  0mm 526 W/m2
11:09 77.2 °F /  25.1 °C 69.9 °F /  21.1 °C 29.93in /  1013.4hPa Calm   2mph /  3.2km/h 78.2% 0.00in /  0mm 487 W/m2
11:14 77.6 °F /  25.3 °C 70.3 °F /  21.3 °C 29.93in /  1013.4hPa SSW 0.1mph /  0.2km/h 2mph /  3.2km/h 78.4% 0.00in /  0mm 522 W/m2
11:19 77.9 °F /  25.5 °C 70.1 °F /  21.2 °C 29.93in /  1013.4hPa Calm   2mph /  3.2km/h 77.1% 0.00in /  0mm 737 W/m2
11:24 78 °F /  25.6 °C 69.3 °F /  20.7 °C 29.93in /  1013.4hPa Calm   2mph /  3.2km/h 74.6% 0.00in /  0mm 728 W/m2
11:29 78.1 °F /  25.6 °C 70.1 °F /  21.2 °C 29.93in /  1013.4hPa Calm   2mph /  3.2km/h 76.3% 0.00in /  0mm 1058 W/m2
11:34 78.6 °F /  25.9 °C 70.1 °F /  21.2 °C 29.92in /  1013.1hPa Calm   2mph /  3.2km/h 75.2% 0.00in /  0mm 905 W/m2
11:39 78.8 °F /  26 °C 69.6 °F /  20.9 °C 29.92in /  1013.1hPa Calm     73.3% 0.00in /  0mm 543 W/m2
11:44 78.8 °F /  26 °C 69.3 °F /  20.7 °C 29.92in /  1013.1hPa SSE 0.1mph /  0.2km/h 2mph /  3.2km/h 72.7% 0.00in /  0mm 506 W/m2
11:49 78.7 °F /  25.9 °C 68.8 °F /  20.4 °C 29.92in /  1013.1hPa SSE 0.1mph /  0.2km/h 2mph /  3.2km/h 71.5% 0.00in /  0mm 469 W/m2
11:54 78.4 °F /  25.8 °C 69 °F /  20.6 °C 29.92in /  1013.1hPa Calm   2mph /  3.2km/h 72.8% 0.00in /  0mm 624 W/m2
11:59 78.8 °F /  26 °C 70.3 °F /  21.3 °C 29.92in /  1013.1hPa Calm   2mph /  3.2km/h 75.1% 0.00in /  0mm 610 W/m2
12:09 79.9 °F /  26.6 °C 70.2 °F /  21.2 °C 29.91in /  1012.8hPa Calm     72.3% 0.00in /  0mm 559 W/m2
12:14 80.1 °F /  26.7 °C 69.3 °F /  20.7 °C 29.91in /  1012.8hPa SE 0.1mph /  0.2km/h 2mph /  3.2km/h 69.7% 0.00in /  0mm 721 W/m2
12:19 79.8 °F /  26.6 °C 68 °F /  20 °C 29.91in /  1012.8hPa ESE 0.7mph /  1.1km/h 4mph /  6.4km/h 67.2% 0.00in /  0mm 840 W/m2
12:24 79.8 °F /  26.6 °C 69 °F /  20.6 °C 29.91in /  1012.8hPa SSE 0.1mph /  0.2km/h 4mph /  6.4km/h 69.6% 0.00in /  0mm 677 W/m2
12:29 80.1 °F /  26.7 °C 68.7 °F /  20.4 °C 29.90in /  1012.4hPa Calm   4mph /  6.4km/h 68.4% 0.00in /  0mm 849 W/m2
12:34 80.7 °F /  27.1 °C 69.6 °F /  20.9 °C 29.90in /  1012.4hPa Calm   4mph /  6.4km/h 69.2% 0.00in /  0mm 849 W/m2
12:39 81.2 °F /  27.3 °C 69.4 °F /  20.8 °C 29.90in /  1012.4hPa Calm   1mph /  1.6km/h 67.3% 0.00in /  0mm 1014 W/m2
12:44 81.6 °F /  27.6 °C 69 °F /  20.6 °C 29.90in /  1012.4hPa Calm   1mph /  1.6km/h 65.7% 0.00in /  0mm 1014 W/m2
12:49 81.9 °F /  27.7 °C 69.4 °F /  20.8 °C 29.90in /  1012.4hPa South 0.1mph /  0.2km/h 3mph /  4.8km/h 66.1% 0.00in /  0mm 592 W/m2
12:54 82.1 °F /  27.8 °C 70.3 °F /  21.3 °C 29.90in /  1012.4hPa Calm   3mph /  4.8km/h 67.6% 0.00in /  0mm 775 W/m2
12:59 82.2 °F /  27.9 °C 70.3 °F /  21.3 °C 29.90in /  1012.4hPa Calm   3mph /  4.8km/h 67.3% 0.00in /  0mm 399 W/m2
13:04 82.1 °F /  27.8 °C 69.6 °F /  20.9 °C 29.90in /  1012.4hPa Calm   3mph /  4.8km/h 65.9% 0.00in /  0mm 313 W/m2
13:09 81.8 °F /  27.7 °C 69.1 °F /  20.6 °C 29.90in /  1012.4hPa Calm     65.5% 0.00in /  0mm 292 W/m2
13:14 81.5 °F /  27.5 °C 69 °F /  20.6 °C 29.90in /  1012.4hPa Calm   1mph /  1.6km/h 66% 0.00in /  0mm 262 W/m2
13:19 81.2 °F /  27.3 °C 69 °F /  20.6 °C 29.90in /  1012.4hPa Calm   2mph /  3.2km/h 66.6% 0.00in /  0mm 236 W/m2
13:24 81 °F /  27.2 °C 69.5 °F /  20.8 °C 29.89in /  1012.1hPa Calm   2mph /  3.2km/h 68% 0.00in /  0mm 230 W/m2
13:29 80.8 °F /  27.1 °C 69.7 °F /  20.9 °C 29.89in /  1012.1hPa Calm   2mph /  3.2km/h 69.2% 0.00in /  0mm 223 W/m2
13:34 80.6 °F /  27 °C 69.7 °F /  20.9 °C 29.89in /  1012.1hPa Calm   2mph /  3.2km/h 69.4% 0.00in /  0mm 204 W/m2
13:39 80.4 °F /  26.9 °C 69.5 °F /  20.8 °C 29.89in /  1012.1hPa Calm     69.4% 0.00in /  0mm 192 W/m2
13:44 80.2 °F /  26.8 °C 69.3 °F /  20.7 °C 29.89in /  1012.1hPa South 0.1mph /  0.2km/h 2mph /  3.2km/h 69.3% 0.00in /  0mm 188 W/m2
13:49 80.1 °F /  26.7 °C 69.3 °F /  20.7 °C 29.89in /  1012.1hPa Calm   2mph /  3.2km/h 69.7% 0.00in /  0mm 193 W/m2
13:54 80.1 °F /  26.7 °C 69.5 °F /  20.8 °C 29.88in /  1011.7hPa Calm   2mph /  3.2km/h 70.2% 0.00in /  0mm 318 W/m2
13:59 80.2 °F /  26.8 °C 69.7 °F /  20.9 °C 29.88in /  1011.7hPa SSW 0.2mph /  0.3km/h 2mph /  3.2km/h 70.4% 0.00in /  0mm 350 W/m2
14:04 80.4 °F /  26.9 °C 69.9 °F /  21.1 °C 29.88in /  1011.7hPa SW 0.1mph /  0.2km/h 3mph /  4.8km/h 70.5% 0.00in /  0mm 360 W/m2
14:09 80.5 °F /  26.9 °C 69.3 °F /  20.7 °C 29.88in /  1011.7hPa Calm   3mph /  4.8km/h 68.7% 0.00in /  0mm 387 W/m2
14:14 80.7 °F /  27.1 °C 69.1 °F /  20.6 °C 29.88in /  1011.7hPa Calm   3mph /  4.8km/h 67.9% 0.00in /  0mm 411 W/m2
14:19 80.9 °F /  27.2 °C 69.9 °F /  21.1 °C 29.88in /  1011.7hPa Calm   3mph /  4.8km/h 69.3% 0.00in /  0mm 325 W/m2
14:24 80.9 °F /  27.2 °C 68.9 °F /  20.5 °C 29.88in /  1011.7hPa Calm   3mph /  4.8km/h 66.9% 0.00in /  0mm 244 W/m2
14:29 80.8 °F /  27.1 °C 68.9 °F /  20.5 °C 29.87in /  1011.4hPa Calm   3mph /  4.8km/h 67.1% 0.00in /  0mm 202 W/m2
14:34 80.7 °F /  27.1 °C 68.4 °F /  20.2 °C 29.87in /  1011.4hPa Calm   3mph /  4.8km/h 66.3% 0.00in /  0mm 149 W/m2
14:39 80.5 °F /  26.9 °C 68.6 °F /  20.3 °C 29.87in /  1011.4hPa Calm   1mph /  1.6km/h 67.2% 0.00in /  0mm 118 W/m2
14:44 80.4 °F /  26.9 °C 69.1 °F /  20.6 °C 29.87in /  1011.4hPa SW 0.1mph /  0.2km/h 2mph /  3.2km/h 68.5% 0.00in /  0mm 97 W/m2
14:49 80.3 °F /  26.8 °C 68.8 °F /  20.4 °C 29.87in /  1011.4hPa Calm   2mph /  3.2km/h 68% 0.00in /  0mm 109 W/m2
14:54 80.2 °F /  26.8 °C 68.8 °F /  20.4 °C 29.87in /  1011.4hPa Calm   2mph /  3.2km/h 68.3% 0.00in /  0mm 128 W/m2
14:59 80.2 °F /  26.8 °C 68.9 °F /  20.5 °C 29.86in /  1011.1hPa Calm   2mph /  3.2km/h 68.6% 0.00in /  0mm 148 W/m2
15:04 80.1 °F /  26.7 °C 68.8 °F /  20.4 °C 29.86in /  1011.1hPa Calm   2mph /  3.2km/h 68.5% 0.00in /  0mm 162 W/m2
15:09 80.1 °F /  26.7 °C 68.6 °F /  20.3 °C 29.86in /  1011.1hPa Calm     68% 0.00in /  0mm 162 W/m2
15:14 80.2 °F /  26.8 °C 68.8 °F /  20.4 °C 29.86in /  1011.1hPa Calm     68.3% 0.00in /  0mm 146 W/m2
15:19 80.2 °F /  26.8 °C 68.6 °F /  20.3 °C 29.86in /  1011.1hPa Calm     67.9% 0.00in /  0mm 146 W/m2
15:24 80.2 °F /  26.8 °C 68.8 °F /  20.4 °C 29.86in /  1011.1hPa Calm     68.4% 0.00in /  0mm 176 W/m2
15:29 80.1 °F /  26.7 °C 68.6 °F /  20.3 °C 29.86in /  1011.1hPa Calm     67.9% 0.00in /  0mm 221 W/m2
15:34 80.2 °F /  26.8 °C 69 °F /  20.6 °C 29.86in /  1011.1hPa Calm     68.7% 0.00in /  0mm 213 W/m2
15:39 80.3 °F /  26.8 °C 69.2 °F /  20.7 °C 29.86in /  1011.1hPa SW 0.1mph /  0.2km/h 3mph /  4.8km/h 69% 0.00in /  0mm 146 W/m2
15:44 80.3 °F /  26.8 °C 69.3 °F /  20.7 °C 29.86in /  1011.1hPa Calm   3mph /  4.8km/h 69.2% 0.00in /  0mm 100 W/m2
15:49 80.3 °F /  26.8 °C 69.5 °F /  20.8 °C 29.86in /  1011.1hPa Calm   3mph /  4.8km/h 69.7% 0.00in /  0mm 81 W/m2
15:54 80.2 °F /  26.8 °C 69.1 °F /  20.6 °C 29.86in /  1011.1hPa Calm   3mph /  4.8km/h 69% 0.00in /  0mm 67 W/m2
15:59 79.9 °F /  26.6 °C 69.1 °F /  20.6 °C 29.86in /  1011.1hPa Calm   3mph /  4.8km/h 69.6% 0.00in /  0mm 60 W/m2
16:00 79.8 °F /  26.6 °C 69.2 °F /  20.7 °C 29.86in /  1011.1hPa Calm   3mph /  4.8km/h 70% 0.00in /  0mm 62 W/m2
16:09 79.2 °F /  26.2 °C 69.1 °F /  20.6 °C 29.85in /  1010.7hPa SW 0.1mph /  0.2km/h 2mph /  3.2km/h 71.4% 0.00in /  0mm 90 W/m2
16:14 78.8 °F /  26 °C 69.2 °F /  20.7 °C 29.85in /  1010.7hPa Calm   2mph /  3.2km/h 72.5% 0.00in /  0mm 90 W/m2
16:19 78.5 °F /  25.8 °C 69.3 °F /  20.7 °C 29.85in /  1010.7hPa Calm   2mph /  3.2km/h 73.5% 0.00in /  0mm 79 W/m2
16:24 78.3 °F /  25.7 °C 69.5 °F /  20.8 °C 29.85in /  1010.7hPa Calm   2mph /  3.2km/h 74.5% 0.00in /  0mm 93 W/m2
16:29 78.2 °F /  25.7 °C 69.6 °F /  20.9 °C 29.85in /  1010.7hPa Calm   2mph /  3.2km/h 75% 0.00in /  0mm 102 W/m2
16:34 78.2 °F /  25.7 °C 69.8 °F /  21 °C 29.85in /  1010.7hPa Calm   2mph /  3.2km/h 75.4% 0.00in /  0mm 156 W/m2
16:39 78.1 °F /  25.6 °C 69.8 °F /  21 °C 29.84in /  1010.4hPa Calm     75.5% 0.00in /  0mm 176 W/m2
16:44 78.1 °F /  25.6 °C 69.6 °F /  20.9 °C 29.84in /  1010.4hPa Calm     75.1% 0.00in /  0mm 202 W/m2
16:49 78.3 °F /  25.7 °C 69.9 °F /  21.1 °C 29.83in /  1010hPa Calm     75.5% 0.00in /  0mm 202 W/m2
16:54 78.5 °F /  25.8 °C 70.2 °F /  21.2 °C 29.83in /  1010hPa Calm     75.8% 0.00in /  0mm 195 W/m2
16:59 78.7 °F /  25.9 °C 70.2 °F /  21.2 °C 29.83in /  1010hPa Calm   1mph /  1.6km/h 75.3% 0.00in /  0mm 186 W/m2
17:04 78.9 °F /  26.1 °C 70.3 °F /  21.3 °C 29.83in /  1010hPa Calm   1mph /  1.6km/h 75% 0.00in /  0mm 174 W/m2
17:09 79 °F /  26.1 °C 70.2 °F /  21.2 °C 29.83in /  1010hPa SW 0.2mph /  0.3km/h 3mph /  4.8km/h 74.4% 0.00in /  0mm 169 W/m2
17:14 79.2 °F /  26.2 °C 70.4 °F /  21.3 °C 29.83in /  1010hPa SW 0.1mph /  0.2km/h 3mph /  4.8km/h 74.4% 0.00in /  0mm 135 W/m2
17:19 79.3 °F /  26.3 °C 70.2 °F /  21.2 °C 29.83in /  1010hPa Calm   3mph /  4.8km/h 73.8% 0.00in /  0mm 125 W/m2
17:24 79.3 °F /  26.3 °C 69.3 °F /  20.7 °C 29.82in /  1009.7hPa Calm   3mph /  4.8km/h 71.5% 0.00in /  0mm 95 W/m2
17:29 79.3 °F /  26.3 °C 69.2 °F /  20.7 °C 29.82in /  1009.7hPa Calm   3mph /  4.8km/h 71.2% 0.00in /  0mm 62 W/m2
17:34 79.5 °F /  26.4 °C 69.5 °F /  20.8 °C 29.82in /  1009.7hPa Calm   3mph /  4.8km/h 71.7% 0.00in /  0mm 54 W/m2
17:39 79.6 °F /  26.4 °C 69.1 °F /  20.6 °C 29.82in /  1009.7hPa Calm     70.4% 0.00in /  0mm 79 W/m2
17:44 79.8 °F /  26.6 °C 69.2 °F /  20.7 °C 29.81in /  1009.4hPa Calm     70.2% 0.00in /  0mm 77 W/m2
17:49 79.9 °F /  26.6 °C 69.2 °F /  20.7 °C 29.81in /  1009.4hPa Calm   1mph /  1.6km/h 69.8% 0.00in /  0mm 53 W/m2
17:54 79.9 °F /  26.6 °C 68.9 °F /  20.5 °C 29.82in /  1009.7hPa Calm   1mph /  1.6km/h 69.2% 0.00in /  0mm 70 W/m2
17:59 80 °F /  26.7 °C 69.3 °F /  20.7 °C 29.82in /  1009.7hPa Calm   1mph /  1.6km/h 70% 0.00in /  0mm 88 W/m2
18:04 80.1 °F /  26.7 °C 69.8 °F /  21 °C 29.82in /  1009.7hPa Calm   1mph /  1.6km/h 70.9% 0.00in /  0mm 109 W/m2
18:09 80.2 °F /  26.8 °C 69.6 °F /  20.9 °C 29.82in /  1009.7hPa Calm   1mph /  1.6km/h 70% 0.00in /  0mm 65 W/m2
18:14 80.3 °F /  26.8 °C 69.6 °F /  20.9 °C 29.82in /  1009.7hPa Calm   1mph /  1.6km/h 70% 0.00in /  0mm 21 W/m2
18:19 80.1 °F /  26.7 °C 69.5 °F /  20.8 °C 29.81in /  1009.4hPa Calm   1mph /  1.6km/h 70% 0.00in /  0mm 19 W/m2
18:24 79.9 °F /  26.6 °C 69.4 °F /  20.8 °C 29.82in /  1009.7hPa Calm   1mph /  1.6km/h 70.4% 0.00in /  0mm 23 W/m2
18:29 79.6 °F /  26.4 °C 69.4 °F /  20.8 °C 29.82in /  1009.7hPa Calm   1mph /  1.6km/h 71% 0.00in /  0mm 40 W/m2
18:34 79.4 °F /  26.3 °C 69.4 °F /  20.8 °C 29.81in /  1009.4hPa Calm   1mph /  1.6km/h 71.7% 0.00in /  0mm 44 W/m2
18:39 79.2 °F /  26.2 °C 69.4 °F /  20.8 °C 29.81in /  1009.4hPa Calm   2mph /  3.2km/h 72% 0.00in /  0mm 39 W/m2
18:44 79.2 °F /  26.2 °C 69.4 °F /  20.8 °C 29.81in /  1009.4hPa Calm   2mph /  3.2km/h 72% 0.00in /  0mm 39 W/m2
18:49 79.2 °F /  26.2 °C 69.4 °F /  20.8 °C 29.81in /  1009.4hPa Calm   2mph /  3.2km/h 72% 0.00in /  0mm 33 W/m2
18:54 79.2 °F /  26.2 °C 69.5 °F /  20.8 °C 29.81in /  1009.4hPa Calm   2mph /  3.2km/h 72.2% 0.00in /  0mm 30 W/m2
18:59 79.1 °F /  26.2 °C 69.4 °F /  20.8 °C 29.81in /  1009.4hPa Calm   2mph /  3.2km/h 72.2% 0.00in /  0mm 26 W/m2
19:04 79.1 °F /  26.2 °C 69.7 °F /  20.9 °C 29.81in /  1009.4hPa Calm   2mph /  3.2km/h 73% 0.00in /  0mm 26 W/m2
19:09 78.9 °F /  26.1 °C 69.5 °F /  20.8 °C 29.81in /  1009.4hPa Calm     73% 0.00in /  0mm 25 W/m2
19:14 78.8 °F /  26 °C 69.6 °F /  20.9 °C 29.81in /  1009.4hPa SW 0.1mph /  0.2km/h 3mph /  4.8km/h 73.5% 0.00in /  0mm 23 W/m2
19:19 78.6 °F /  25.9 °C 69.6 °F /  20.9 °C 29.81in /  1009.4hPa Calm   3mph /  4.8km/h 74% 0.00in /  0mm 19 W/m2
19:24 78.5 °F /  25.8 °C 69.7 °F /  20.9 °C 29.81in /  1009.4hPa SW 0.1mph /  0.2km/h 3mph /  4.8km/h 74.6% 0.00in /  0mm 19 W/m2
19:29 78.3 °F /  25.7 °C 69.7 °F /  20.9 °C 29.80in /  1009hPa Calm   3mph /  4.8km/h 75% 0.00in /  0mm 19 W/m2
19:34 78.2 °F /  25.7 °C 69.6 °F /  20.9 °C 29.80in /  1009hPa Calm   3mph /  4.8km/h 75% 0.00in /  0mm 18 W/m2
19:39 78 °F /  25.6 °C 69.8 °F /  21 °C 29.80in /  1009hPa Calm     76% 0.00in /  0mm 16 W/m2
19:44 77.7 °F /  25.4 °C 69.6 °F /  20.9 °C 29.80in /  1009hPa Calm     76% 0.00in /  0mm 12 W/m2
19:49 77.4 °F /  25.2 °C 69.3 °F /  20.7 °C 29.80in /  1009hPa Calm     76% 0.00in /  0mm 11 W/m2
19:54 77.2 °F /  25.1 °C 69.4 °F /  20.8 °C 29.80in /  1009hPa Calm     77% 0.00in /  0mm 7 W/m2
19:59 76.8 °F /  24.9 °C 69.4 °F /  20.8 °C 29.80in /  1009hPa Calm     77.8% 0.00in /  0mm 5 W/m2
20:00 76.7 °F /  24.8 °C 69.3 °F /  20.7 °C 29.80in /  1009hPa Calm     78% 0.00in /  0mm 0 W/m2
20:09 76.3 °F /  24.6 °C 69.4 °F /  20.8 °C 29.80in /  1009hPa Calm     79% 0.00in /  0mm 0 W/m2
20:14 76.1 °F /  24.5 °C 69.2 °F /  20.7 °C 29.80in /  1009hPa Calm     79.2% 0.00in /  0mm 0 W/m2
20:19 75.9 °F /  24.4 °C 69.3 °F /  20.7 °C 29.80in /  1009hPa Calm     80% 0.00in /  0mm 0 W/m2
20:24 75.6 °F /  24.2 °C 69.2 °F /  20.7 °C 29.81in /  1009.4hPa Calm     80.5% 0.00in /  0mm 0 W/m2
20:29 75.4 °F /  24.1 °C 69.2 °F /  20.7 °C 29.81in /  1009.4hPa Calm     81% 0.00in /  0mm 0 W/m2
20:34 75.2 °F /  24 °C 69.1 °F /  20.6 °C 29.81in /  1009.4hPa Calm     81.5% 0.00in /  0mm 0 W/m2
20:39 75 °F /  23.9 °C 69.1 °F /  20.6 °C 29.81in /  1009.4hPa Calm     82% 0.00in /  0mm 0 W/m2
20:44 74.8 °F /  23.8 °C 69.1 °F /  20.6 °C 29.81in /  1009.4hPa Calm     82.6% 0.00in /  0mm 0 W/m2
20:49 74.6 °F /  23.7 °C 69.1 °F /  20.6 °C 29.81in /  1009.4hPa Calm     83% 0.00in /  0mm 0 W/m2
20:54 74.4 °F /  23.6 °C 68.9 °F /  20.5 °C 29.81in /  1009.4hPa Calm     83% 0.00in /  0mm 0 W/m2
20:59 74.2 °F /  23.4 °C 69 °F /  20.6 °C 29.82in /  1009.7hPa Calm     83.8% 0.00in /  0mm 0 W/m2
21:04 74 °F /  23.3 °C 68.9 °F /  20.5 °C 29.81in /  1009.4hPa Calm     84% 0.00in /  0mm 0 W/m2
21:09 73.8 °F /  23.2 °C 68.7 °F /  20.4 °C 29.82in /  1009.7hPa Calm     84% 0.00in /  0mm 0 W/m2
21:14 73.6 °F /  23.1 °C 68.8 °F /  20.4 °C 29.82in /  1009.7hPa Calm     84.9% 0.00in /  0mm 0 W/m2
21:19 73.5 °F /  23.1 °C 68.7 °F /  20.4 °C 29.82in /  1009.7hPa Calm     85% 0.00in /  0mm 0 W/m2
21:24 73.3 °F /  22.9 °C 68.6 °F /  20.3 °C 29.82in /  1009.7hPa Calm     85.3% 0.00in /  0mm 0 W/m2
21:29 73.1 °F /  22.8 °C 68.7 °F /  20.4 °C 29.82in /  1009.7hPa Calm     86% 0.00in /  0mm 0 W/m2
21:34 73.1 °F /  22.8 °C 69 °F /  20.6 °C 29.82in /  1009.7hPa Calm     87% 0.00in /  0mm 0 W/m2
21:39 73 °F /  22.8 °C 68.9 °F /  20.5 °C 29.82in /  1009.7hPa Calm     87% 0.00in /  0mm 0 W/m2
21:44 72.8 °F /  22.7 °C 68.7 °F /  20.4 °C 29.82in /  1009.7hPa Calm     87% 0.00in /  0mm 0 W/m2
21:49 72.7 °F /  22.6 °C 68.6 °F /  20.3 °C 29.82in /  1009.7hPa Calm     87% 0.00in /  0mm 0 W/m2
21:54 72.5 °F /  22.5 °C 68.7 °F /  20.4 °C 29.81in /  1009.4hPa Calm     88% 0.00in /  0mm 0 W/m2
21:59 72.3 °F /  22.4 °C 68.5 °F /  20.3 °C 29.81in /  1009.4hPa Calm     88% 0.00in /  0mm 0 W/m2
22:04 72.1 °F /  22.3 °C 68.4 °F /  20.2 °C 29.81in /  1009.4hPa Calm     88% 0.00in /  0mm 0 W/m2
22:09 72 °F /  22.2 °C 68.2 °F /  20.1 °C 29.81in /  1009.4hPa Calm     88% 0.00in /  0mm 0 W/m2
22:14 71.8 °F /  22.1 °C 68.4 °F /  20.2 °C 29.81in /  1009.4hPa Calm     88.9% 0.00in /  0mm 0 W/m2
22:19 71.7 °F /  22.1 °C 68.3 °F /  20.2 °C 29.81in /  1009.4hPa Calm     89% 0.00in /  0mm 0 W/m2
22:24 71.6 °F /  22 °C 68.2 °F /  20.1 °C 29.81in /  1009.4hPa Calm     89% 0.00in /  0mm 0 W/m2
22:29 71.5 °F /  21.9 °C 68.1 °F /  20.1 °C 29.81in /  1009.4hPa Calm     89% 0.00in /  0mm 0 W/m2
22:34 71.4 °F /  21.9 °C 68 °F /  20 °C 29.81in /  1009.4hPa Calm     89% 0.00in /  0mm 0 W/m2
22:39 71.3 °F /  21.8 °C 67.8 °F /  19.9 °C 29.81in /  1009.4hPa Calm     89% 0.00in /  0mm 0 W/m2
22:44 71.1 °F /  21.7 °C 67.8 °F /  19.9 °C 29.81in /  1009.4hPa Calm     89.3% 0.00in /  0mm 0 W/m2
22:49 71 °F /  21.7 °C 67.8 °F /  19.9 °C 29.80in /  1009hPa Calm     89.7% 0.00in /  0mm 0 W/m2
22:54 70.9 °F /  21.6 °C 67.8 °F /  19.9 °C 29.81in /  1009.4hPa Calm     90% 0.00in /  0mm 0 W/m2
22:59 70.8 °F /  21.6 °C 67.7 °F /  19.8 °C 29.81in /  1009.4hPa Calm     90% 0.00in /  0mm 0 W/m2
23:04 70.7 °F /  21.5 °C 67.7 °F /  19.8 °C 29.80in /  1009hPa Calm     90.3% 0.00in /  0mm 0 W/m2
23:09 70.6 °F /  21.4 °C 67.8 °F /  19.9 °C 29.80in /  1009hPa Calm     91% 0.00in /  0mm 0 W/m2
23:14 70.4 °F /  21.3 °C 67.7 °F /  19.8 °C 29.81in /  1009.4hPa Calm     91% 0.00in /  0mm 0 W/m2
23:19 70.4 °F /  21.3 °C 67.6 °F /  19.8 °C 29.81in /  1009.4hPa Calm     91% 0.00in /  0mm 0 W/m2
23:24 70.3 °F /  21.3 °C 67.5 °F /  19.7 °C 29.81in /  1009.4hPa Calm     91% 0.00in /  0mm 0 W/m2
23:29 70.2 °F /  21.2 °C 67.4 °F /  19.7 °C 29.81in /  1009.4hPa Calm     91% 0.00in /  0mm 0 W/m2
23:34 70.1 °F /  21.2 °C 67.6 °F /  19.8 °C 29.81in /  1009.4hPa Calm     91.9% 0.00in /  0mm 0 W/m2
23:39 70 °F /  21.1 °C 67.6 °F /  19.8 °C 29.81in /  1009.4hPa Calm     92% 0.00in /  0mm 0 W/m2
23:44 69.9 °F /  21.1 °C 67.5 °F /  19.7 °C 29.81in /  1009.4hPa Calm     92% 0.00in /  0mm 0 W/m2
23:49 69.9 °F /  21.1 °C 67.5 °F /  19.7 °C 29.81in /  1009.4hPa Calm     92% 0.00in /  0mm 0 W/m2
23:54 69.9 °F /  21.1 °C 67.4 °F /  19.7 °C 29.81in /  1009.4hPa Calm     92% 0.00in /  0mm 0 W/m2
23:59 69.8 °F /  21 °C 67.4 °F /  19.7 °C 29.81in /  1009.4hPa Calm     92% 0.00in /  0mm 0 W/m2
Hartford County Weather
Compliments of Weather Underground - 4 mb